sensor_id;sensor_type;location;lat;lon;timestamp;P1;durP1;ratioP1;P2;durP2;ratioP2
34876;SDS011;21086;44.780;17.194;2023-04-03T00:00:55;2.17;;;1.10;;
34876;SDS011;21086;44.780;17.194;2023-04-03T00:03:22;1.85;;;1.17;;
34876;SDS011;21086;44.780;17.194;2023-04-03T00:05:49;1.80;;;1.10;;
34876;SDS011;21086;44.780;17.194;2023-04-03T00:08:17;1.00;;;0.80;;
34876;SDS011;21086;44.780;17.194;2023-04-03T00:10:44;2.45;;;1.15;;
34876;SDS011;21086;44.780;17.194;2023-04-03T00:13:11;1.45;;;1.10;;
34876;SDS011;21086;44.780;17.194;2023-04-03T00:15:39;1.30;;;1.00;;
34876;SDS011;21086;44.780;17.194;2023-04-03T00:18:06;2.17;;;1.00;;
34876;SDS011;21086;44.780;17.194;2023-04-03T00:20:34;4.50;;;1.10;;
34876;SDS011;21086;44.780;17.194;2023-04-03T00:23:01;1.80;;;1.08;;
34876;SDS011;21086;44.780;17.194;2023-04-03T00:25:29;1.50;;;0.90;;
34876;SDS011;21086;44.780;17.194;2023-04-03T00:27:56;1.92;;;1.27;;
34876;SDS011;21086;44.780;17.194;2023-04-03T00:30:23;3.10;;;1.85;;
34876;SDS011;21086;44.780;17.194;2023-04-03T00:32:51;1.67;;;1.20;;
34876;SDS011;21086;44.780;17.194;2023-04-03T00:35:18;1.58;;;1.23;;
34876;SDS011;21086;44.780;17.194;2023-04-03T00:37:46;1.35;;;0.98;;
34876;SDS011;21086;44.780;17.194;2023-04-03T00:40:14;1.63;;;1.20;;
34876;SDS011;21086;44.780;17.194;2023-04-03T00:42:43;1.58;;;1.30;;
34876;SDS011;21086;44.780;17.194;2023-04-03T00:47:39;2.60;;;1.60;;
34876;SDS011;21086;44.780;17.194;2023-04-03T00:50:08;2.53;;;1.33;;
34876;SDS011;21086;44.780;17.194;2023-04-03T00:52:35;1.80;;;1.15;;
34876;SDS011;21086;44.780;17.194;2023-04-03T00:55:06;1.15;;;1.00;;
34876;SDS011;21086;44.780;17.194;2023-04-03T00:57:35;2.17;;;1.40;;
34876;SDS011;21086;44.780;17.194;2023-04-03T01:00:05;2.20;;;1.55;;
34876;SDS011;21086;44.780;17.194;2023-04-03T01:02:36;1.55;;;1.10;;
34876;SDS011;21086;44.780;17.194;2023-04-03T01:05:03;1.75;;;1.50;;
34876;SDS011;21086;44.780;17.194;2023-04-03T01:07:31;1.55;;;1.10;;
34876;SDS011;21086;44.780;17.194;2023-04-03T01:10:02;1.27;;;1.13;;
34876;SDS011;21086;44.780;17.194;2023-04-03T01:12:32;4.00;;;1.60;;
34876;SDS011;21086;44.780;17.194;2023-04-03T01:15:06;4.57;;;1.33;;
34876;SDS011;21086;44.780;17.194;2023-04-03T01:17:35;1.90;;;1.50;;
34876;SDS011;21086;44.780;17.194;2023-04-03T01:20:13;1.77;;;1.38;;
34876;SDS011;21086;44.780;17.194;2023-04-03T01:28:14;2.00;;;1.45;;
34876;SDS011;21086;44.780;17.194;2023-04-03T01:30:48;2.15;;;1.65;;
34876;SDS011;21086;44.780;17.194;2023-04-03T01:33:35;2.28;;;1.60;;
34876;SDS011;21086;44.780;17.194;2023-04-03T01:36:03;3.28;;;2.00;;
34876;SDS011;21086;44.780;17.194;2023-04-03T01:38:31;2.28;;;1.67;;
34876;SDS011;21086;44.780;17.194;2023-04-03T01:40:58;2.25;;;1.67;;
34876;SDS011;21086;44.780;17.194;2023-04-03T01:43:25;2.45;;;1.73;;
34876;SDS011;21086;44.780;17.194;2023-04-03T01:45:52;2.65;;;1.85;;
34876;SDS011;21086;44.780;17.194;2023-04-03T01:48:21;2.17;;;1.70;;
34876;SDS011;21086;44.780;17.194;2023-04-03T01:50:48;1.88;;;1.55;;
34876;SDS011;21086;44.780;17.194;2023-04-03T01:53:15;2.33;;;1.60;;
34876;SDS011;21086;44.780;17.194;2023-04-03T01:55:42;2.55;;;1.77;;
34876;SDS011;21086;44.780;17.194;2023-04-03T01:58:09;4.50;;;1.80;;
34876;SDS011;21086;44.780;17.194;2023-04-03T02:00:36;1.73;;;1.33;;
34876;SDS011;21086;44.780;17.194;2023-04-03T02:03:03;1.88;;;1.52;;
34876;SDS011;21086;44.780;17.194;2023-04-03T02:05:30;1.92;;;1.58;;
34876;SDS011;21086;44.780;17.194;2023-04-03T02:07:58;1.98;;;1.48;;
34876;SDS011;21086;44.780;17.194;2023-04-03T02:10:25;1.50;;;1.30;;
34876;SDS011;21086;44.780;17.194;2023-04-03T02:12:52;1.75;;;1.50;;
34876;SDS011;21086;44.780;17.194;2023-04-03T02:15:19;1.60;;;1.38;;
34876;SDS011;21086;44.780;17.194;2023-04-03T02:17:46;2.22;;;1.42;;
34876;SDS011;21086;44.780;17.194;2023-04-03T02:20:13;2.47;;;1.30;;
34876;SDS011;21086;44.780;17.194;2023-04-03T02:22:40;2.60;;;1.50;;
34876;SDS011;21086;44.780;17.194;2023-04-03T02:25:07;1.73;;;1.27;;
34876;SDS011;21086;44.780;17.194;2023-04-03T02:27:34;2.45;;;1.73;;
34876;SDS011;21086;44.780;17.194;2023-04-03T02:30:02;1.90;;;1.48;;
34876;SDS011;21086;44.780;17.194;2023-04-03T02:32:29;2.05;;;1.58;;
34876;SDS011;21086;44.780;17.194;2023-04-03T02:34:57;1.73;;;1.20;;
34876;SDS011;21086;44.780;17.194;2023-04-03T02:37:25;1.95;;;1.42;;
34876;SDS011;21086;44.780;17.194;2023-04-03T02:39:52;2.35;;;1.75;;
34876;SDS011;21086;44.780;17.194;2023-04-03T02:42:19;1.63;;;1.30;;
34876;SDS011;21086;44.780;17.194;2023-04-03T02:44:46;2.08;;;1.73;;
34876;SDS011;21086;44.780;17.194;2023-04-03T02:47:13;2.38;;;1.48;;
34876;SDS011;21086;44.780;17.194;2023-04-03T02:49:40;2.05;;;1.38;;
34876;SDS011;21086;44.780;17.194;2023-04-03T02:52:06;1.42;;;1.13;;
34876;SDS011;21086;44.780;17.194;2023-04-03T02:54:34;2.22;;;1.70;;
34876;SDS011;21086;44.780;17.194;2023-04-03T02:57:01;1.88;;;1.35;;
34876;SDS011;21086;44.780;17.194;2023-04-03T02:59:28;1.50;;;1.35;;
34876;SDS011;21086;44.780;17.194;2023-04-03T03:01:55;2.20;;;1.60;;
34876;SDS011;21086;44.780;17.194;2023-04-03T03:04:23;1.95;;;1.58;;
34876;SDS011;21086;44.780;17.194;2023-04-03T03:06:49;2.03;;;1.60;;
34876;SDS011;21086;44.780;17.194;2023-04-03T03:09:17;2.88;;;1.60;;
34876;SDS011;21086;44.780;17.194;2023-04-03T03:11:44;2.10;;;1.45;;
34876;SDS011;21086;44.780;17.194;2023-04-03T03:14:11;1.63;;;1.48;;
34876;SDS011;21086;44.780;17.194;2023-04-03T03:16:38;2.58;;;1.50;;
34876;SDS011;21086;44.780;17.194;2023-04-03T03:19:05;2.30;;;1.88;;
34876;SDS011;21086;44.780;17.194;2023-04-03T03:21:33;1.50;;;1.23;;
34876;SDS011;21086;44.780;17.194;2023-04-03T03:24:00;2.20;;;1.70;;
34876;SDS011;21086;44.780;17.194;2023-04-03T03:26:27;2.30;;;1.60;;
34876;SDS011;21086;44.780;17.194;2023-04-03T03:28:54;2.90;;;1.73;;
34876;SDS011;21086;44.780;17.194;2023-04-03T03:31:22;1.70;;;1.30;;
34876;SDS011;21086;44.780;17.194;2023-04-03T03:33:48;1.50;;;1.13;;
34876;SDS011;21086;44.780;17.194;2023-04-03T03:36:15;2.35;;;1.58;;
34876;SDS011;21086;44.780;17.194;2023-04-03T03:38:43;2.47;;;1.20;;
34876;SDS011;21086;44.780;17.194;2023-04-03T03:41:10;2.22;;;1.48;;
34876;SDS011;21086;44.780;17.194;2023-04-03T03:43:37;2.30;;;1.92;;
34876;SDS011;21086;44.780;17.194;2023-04-03T03:46:04;4.25;;;3.53;;
34876;SDS011;21086;44.780;17.194;2023-04-03T03:48:31;2.10;;;1.67;;
34876;SDS011;21086;44.780;17.194;2023-04-03T03:50:58;1.55;;;1.45;;
34876;SDS011;21086;44.780;17.194;2023-04-03T03:53:25;2.47;;;1.70;;
34876;SDS011;21086;44.780;17.194;2023-04-03T03:55:52;1.92;;;1.42;;
34876;SDS011;21086;44.780;17.194;2023-04-03T03:58:19;2.25;;;1.40;;
34876;SDS011;21086;44.780;17.194;2023-04-03T04:00:46;2.13;;;1.60;;
34876;SDS011;21086;44.780;17.194;2023-04-03T04:03:13;2.95;;;1.45;;
34876;SDS011;21086;44.780;17.194;2023-04-03T04:05:40;2.22;;;1.92;;
34876;SDS011;21086;44.780;17.194;2023-04-03T04:08:08;1.83;;;1.40;;
34876;SDS011;21086;44.780;17.194;2023-04-03T04:10:35;1.60;;;1.38;;
34876;SDS011;21086;44.780;17.194;2023-04-03T04:13:04;2.30;;;1.33;;
34876;SDS011;21086;44.780;17.194;2023-04-03T04:15:31;1.75;;;1.30;;
34876;SDS011;21086;44.780;17.194;2023-04-03T04:17:58;1.20;;;1.10;;
34876;SDS011;21086;44.780;17.194;2023-04-03T04:20:25;1.77;;;1.35;;
34876;SDS011;21086;44.780;17.194;2023-04-03T04:22:52;2.75;;;1.60;;
34876;SDS011;21086;44.780;17.194;2023-04-03T04:25:19;1.48;;;1.25;;
34876;SDS011;21086;44.780;17.194;2023-04-03T04:27:46;2.53;;;2.13;;
34876;SDS011;21086;44.780;17.194;2023-04-03T04:30:13;2.55;;;1.85;;
34876;SDS011;21086;44.780;17.194;2023-04-03T04:32:40;2.40;;;1.95;;
34876;SDS011;21086;44.780;17.194;2023-04-03T04:35:07;1.55;;;1.45;;
34876;SDS011;21086;44.780;17.194;2023-04-03T04:37:34;2.83;;;1.90;;
34876;SDS011;21086;44.780;17.194;2023-04-03T04:40:02;2.78;;;1.90;;
34876;SDS011;21086;44.780;17.194;2023-04-03T04:42:29;3.80;;;2.65;;
34876;SDS011;21086;44.780;17.194;2023-04-03T04:44:56;8.43;;;5.50;;
34876;SDS011;21086;44.780;17.194;2023-04-03T04:47:22;3.55;;;2.22;;
34876;SDS011;21086;44.780;17.194;2023-04-03T04:49:49;3.53;;;1.80;;
34876;SDS011;21086;44.780;17.194;2023-04-03T04:52:16;2.20;;;1.80;;
34876;SDS011;21086;44.780;17.194;2023-04-03T04:54:44;2.05;;;1.70;;
34876;SDS011;21086;44.780;17.194;2023-04-03T04:57:11;2.33;;;1.77;;
34876;SDS011;21086;44.780;17.194;2023-04-03T04:59:38;2.97;;;1.73;;
34876;SDS011;21086;44.780;17.194;2023-04-03T05:02:05;2.60;;;1.50;;
34876;SDS011;21086;44.780;17.194;2023-04-03T05:04:32;3.25;;;1.83;;
34876;SDS011;21086;44.780;17.194;2023-04-03T05:06:59;1.67;;;1.38;;
34876;SDS011;21086;44.780;17.194;2023-04-03T05:09:26;2.38;;;1.85;;
34876;SDS011;21086;44.780;17.194;2023-04-03T05:11:53;2.55;;;2.00;;
34876;SDS011;21086;44.780;17.194;2023-04-03T05:14:21;2.55;;;2.08;;
34876;SDS011;21086;44.780;17.194;2023-04-03T05:16:48;2.58;;;1.70;;
34876;SDS011;21086;44.780;17.194;2023-04-03T05:19:19;2.47;;;2.05;;
34876;SDS011;21086;44.780;17.194;2023-04-03T05:21:47;2.95;;;2.10;;
34876;SDS011;21086;44.780;17.194;2023-04-03T05:24:14;3.58;;;2.40;;
34876;SDS011;21086;44.780;17.194;2023-04-03T05:26:43;2.75;;;1.90;;
34876;SDS011;21086;44.780;17.194;2023-04-03T05:29:10;4.55;;;2.00;;
34876;SDS011;21086;44.780;17.194;2023-04-03T05:31:37;3.35;;;2.20;;
34876;SDS011;21086;44.780;17.194;2023-04-03T05:34:04;3.20;;;2.30;;
34876;SDS011;21086;44.780;17.194;2023-04-03T05:36:32;4.25;;;2.20;;
34876;SDS011;21086;44.780;17.194;2023-04-03T05:38:59;4.95;;;3.33;;
34876;SDS011;21086;44.780;17.194;2023-04-03T05:41:26;3.08;;;2.55;;
34876;SDS011;21086;44.780;17.194;2023-04-03T05:43:53;4.97;;;2.75;;
34876;SDS011;21086;44.780;17.194;2023-04-03T05:46:20;3.05;;;2.25;;
34876;SDS011;21086;44.780;17.194;2023-04-03T05:48:48;3.95;;;2.78;;
34876;SDS011;21086;44.780;17.194;2023-04-03T05:51:19;3.15;;;2.38;;
34876;SDS011;21086;44.780;17.194;2023-04-03T05:53:58;2.47;;;1.83;;
34876;SDS011;21086;44.780;17.194;2023-04-03T05:56:40;3.15;;;2.20;;
34876;SDS011;21086;44.780;17.194;2023-04-03T05:59:07;3.85;;;2.67;;
34876;SDS011;21086;44.780;17.194;2023-04-03T06:01:34;3.85;;;2.88;;
34876;SDS011;21086;44.780;17.194;2023-04-03T06:04:01;2.88;;;2.22;;
34876;SDS011;21086;44.780;17.194;2023-04-03T06:09:15;2.25;;;1.90;;
34876;SDS011;21086;44.780;17.194;2023-04-03T06:11:43;3.08;;;2.30;;
34876;SDS011;21086;44.780;17.194;2023-04-03T06:14:10;2.90;;;2.45;;
34876;SDS011;21086;44.780;17.194;2023-04-03T06:16:37;3.33;;;2.72;;
34876;SDS011;21086;44.780;17.194;2023-04-03T06:19:06;4.47;;;3.40;;
34876;SDS011;21086;44.780;17.194;2023-04-03T06:21:34;4.05;;;2.85;;
34876;SDS011;21086;44.780;17.194;2023-04-03T06:24:05;4.13;;;2.92;;
34876;SDS011;21086;44.780;17.194;2023-04-03T06:26:33;3.88;;;2.95;;
34876;SDS011;21086;44.780;17.194;2023-04-03T06:29:00;4.68;;;3.28;;
34876;SDS011;21086;44.780;17.194;2023-04-03T06:31:28;4.47;;;3.17;;
34876;SDS011;21086;44.780;17.194;2023-04-03T06:33:56;4.60;;;3.83;;
34876;SDS011;21086;44.780;17.194;2023-04-03T06:36:23;4.90;;;3.80;;
34876;SDS011;21086;44.780;17.194;2023-04-03T06:38:50;5.53;;;3.92;;
34876;SDS011;21086;44.780;17.194;2023-04-03T06:41:17;7.70;;;5.13;;
34876;SDS011;21086;44.780;17.194;2023-04-03T06:43:44;5.70;;;3.85;;
34876;SDS011;21086;44.780;17.194;2023-04-03T06:46:15;5.90;;;4.07;;
34876;SDS011;21086;44.780;17.194;2023-04-03T06:48:47;5.10;;;3.22;;
34876;SDS011;21086;44.780;17.194;2023-04-03T06:53:53;5.18;;;3.10;;
34876;SDS011;21086;44.780;17.194;2023-04-03T06:56:21;6.47;;;4.03;;
34876;SDS011;21086;44.780;17.194;2023-04-03T06:58:48;5.75;;;4.32;;
34876;SDS011;21086;44.780;17.194;2023-04-03T07:01:17;6.30;;;4.20;;
34876;SDS011;21086;44.780;17.194;2023-04-03T07:03:47;5.07;;;4.18;;
34876;SDS011;21086;44.780;17.194;2023-04-03T07:06:16;4.80;;;3.05;;
34876;SDS011;21086;44.780;17.194;2023-04-03T07:08:43;7.10;;;4.53;;
34876;SDS011;21086;44.780;17.194;2023-04-03T07:11:12;4.85;;;3.25;;
34876;SDS011;21086;44.780;17.194;2023-04-03T07:13:39;3.20;;;2.38;;
34876;SDS011;21086;44.780;17.194;2023-04-03T07:16:06;5.22;;;3.17;;
34876;SDS011;21086;44.780;17.194;2023-04-03T07:18:34;5.60;;;4.07;;
34876;SDS011;21086;44.780;17.194;2023-04-03T07:21:02;3.50;;;2.80;;
34876;SDS011;21086;44.780;17.194;2023-04-03T07:23:29;3.63;;;2.47;;
34876;SDS011;21086;44.780;17.194;2023-04-03T07:25:56;3.75;;;2.38;;
34876;SDS011;21086;44.780;17.194;2023-04-03T07:28:23;3.90;;;2.85;;
34876;SDS011;21086;44.780;17.194;2023-04-03T07:30:52;8.10;;;2.92;;
34876;SDS011;21086;44.780;17.194;2023-04-03T07:33:25;4.90;;;4.03;;
34876;SDS011;21086;44.780;17.194;2023-04-03T07:35:52;7.05;;;4.25;;
34876;SDS011;21086;44.780;17.194;2023-04-03T07:38:20;6.07;;;4.47;;
34876;SDS011;21086;44.780;17.194;2023-04-03T07:40:47;4.85;;;3.08;;
34876;SDS011;21086;44.780;17.194;2023-04-03T07:43:16;5.15;;;2.95;;
34876;SDS011;21086;44.780;17.194;2023-04-03T07:45:44;4.18;;;2.80;;
34876;SDS011;21086;44.780;17.194;2023-04-03T07:48:13;4.53;;;2.83;;
34876;SDS011;21086;44.780;17.194;2023-04-03T07:50:40;3.58;;;2.78;;
34876;SDS011;21086;44.780;17.194;2023-04-03T07:53:07;3.45;;;2.75;;
34876;SDS011;21086;44.780;17.194;2023-04-03T07:55:34;3.38;;;2.45;;
34876;SDS011;21086;44.780;17.194;2023-04-03T07:58:14;2.45;;;2.00;;
34876;SDS011;21086;44.780;17.194;2023-04-03T08:00:42;2.88;;;2.10;;
34876;SDS011;21086;44.780;17.194;2023-04-03T08:03:10;3.72;;;2.50;;
34876;SDS011;21086;44.780;17.194;2023-04-03T08:05:39;5.60;;;2.88;;
34876;SDS011;21086;44.780;17.194;2023-04-03T08:08:08;4.53;;;3.40;;
34876;SDS011;21086;44.780;17.194;2023-04-03T08:10:36;4.53;;;3.45;;
34876;SDS011;21086;44.780;17.194;2023-04-03T08:13:03;9.05;;;4.32;;
34876;SDS011;21086;44.780;17.194;2023-04-03T08:15:31;4.72;;;3.40;;
34876;SDS011;21086;44.780;17.194;2023-04-03T08:17:58;4.25;;;2.88;;
34876;SDS011;21086;44.780;17.194;2023-04-03T08:20:27;4.22;;;3.00;;
34876;SDS011;21086;44.780;17.194;2023-04-03T08:22:54;3.90;;;2.92;;
34876;SDS011;21086;44.780;17.194;2023-04-03T08:25:22;4.75;;;3.15;;
34876;SDS011;21086;44.780;17.194;2023-04-03T08:27:49;3.10;;;2.40;;
34876;SDS011;21086;44.780;17.194;2023-04-03T08:30:15;2.75;;;2.13;;
34876;SDS011;21086;44.780;17.194;2023-04-03T08:32:42;3.40;;;2.47;;
34876;SDS011;21086;44.780;17.194;2023-04-03T08:35:11;4.47;;;3.20;;
34876;SDS011;21086;44.780;17.194;2023-04-03T08:37:38;3.72;;;2.92;;
34876;SDS011;21086;44.780;17.194;2023-04-03T08:40:06;5.65;;;4.00;;
34876;SDS011;21086;44.780;17.194;2023-04-03T08:45:15;2.92;;;2.20;;
34876;SDS011;21086;44.780;17.194;2023-04-03T08:47:52;5.05;;;2.70;;
34876;SDS011;21086;44.780;17.194;2023-04-03T08:50:31;3.33;;;2.50;;
34876;SDS011;21086;44.780;17.194;2023-04-03T08:53:04;2.90;;;2.20;;
34876;SDS011;21086;44.780;17.194;2023-04-03T08:55:40;3.45;;;2.40;;
34876;SDS011;21086;44.780;17.194;2023-04-03T09:01:05;4.07;;;3.25;;
34876;SDS011;21086;44.780;17.194;2023-04-03T09:03:52;5.68;;;3.45;;
34876;SDS011;21086;44.780;17.194;2023-04-03T09:06:21;4.07;;;2.70;;
34876;SDS011;21086;44.780;17.194;2023-04-03T09:12:15;3.88;;;2.40;;
34876;SDS011;21086;44.780;17.194;2023-04-03T09:22:57;4.28;;;3.53;;
34876;SDS011;21086;44.780;17.194;2023-04-03T09:27:53;3.33;;;2.97;;
34876;SDS011;21086;44.780;17.194;2023-04-03T09:30:22;4.18;;;3.53;;
34876;SDS011;21086;44.780;17.194;2023-04-03T09:32:52;3.08;;;2.20;;
34876;SDS011;21086;44.780;17.194;2023-04-03T09:35:25;4.55;;;2.08;;
34876;SDS011;21086;44.780;17.194;2023-04-03T09:40:43;3.00;;;2.35;;
34876;SDS011;21086;44.780;17.194;2023-04-03T09:45:50;4.20;;;3.05;;
34876;SDS011;21086;44.780;17.194;2023-04-03T09:48:22;3.60;;;2.70;;
34876;SDS011;21086;44.780;17.194;2023-04-03T09:53:30;10.63;;;7.20;;
34876;SDS011;21086;44.780;17.194;2023-04-03T09:56:25;9.30;;;6.32;;
34876;SDS011;21086;44.780;17.194;2023-04-03T10:01:31;5.55;;;4.30;;
34876;SDS011;21086;44.780;17.194;2023-04-03T10:04:12;9.77;;;6.82;;
34876;SDS011;21086;44.780;17.194;2023-04-03T10:06:42;11.73;;;9.10;;
34876;SDS011;21086;44.780;17.194;2023-04-03T10:09:17;9.18;;;6.63;;
34876;SDS011;21086;44.780;17.194;2023-04-03T10:11:59;5.53;;;4.35;;
34876;SDS011;21086;44.780;17.194;2023-04-03T10:14:39;3.78;;;2.83;;
34876;SDS011;21086;44.780;17.194;2023-04-03T10:17:36;7.45;;;3.25;;
34876;SDS011;21086;44.780;17.194;2023-04-03T10:22:47;3.00;;;2.17;;
34876;SDS011;21086;44.780;17.194;2023-04-03T10:28:10;19.42;;;14.77;;
34876;SDS011;21086;44.780;17.194;2023-04-03T10:33:45;5.03;;;3.70;;
34876;SDS011;21086;44.780;17.194;2023-04-03T10:36:42;5.07;;;4.13;;
34876;SDS011;21086;44.780;17.194;2023-04-03T10:42:36;5.63;;;4.22;;
34876;SDS011;21086;44.780;17.194;2023-04-03T10:45:29;4.60;;;3.80;;
34876;SDS011;21086;44.780;17.194;2023-04-03T10:48:26;4.97;;;3.67;;
34876;SDS011;21086;44.780;17.194;2023-04-03T10:51:12;5.15;;;4.18;;
34876;SDS011;21086;44.780;17.194;2023-04-03T10:53:56;4.50;;;3.72;;
34876;SDS011;21086;44.780;17.194;2023-04-03T10:57:06;4.40;;;3.70;;
34876;SDS011;21086;44.780;17.194;2023-04-03T11:02:30;4.68;;;3.58;;
34876;SDS011;21086;44.780;17.194;2023-04-03T11:05:04;5.13;;;3.97;;
34876;SDS011;21086;44.780;17.194;2023-04-03T11:07:40;3.92;;;3.10;;
34876;SDS011;21086;44.780;17.194;2023-04-03T11:13:07;5.43;;;4.05;;
34876;SDS011;21086;44.780;17.194;2023-04-03T11:15:38;7.93;;;5.03;;
34876;SDS011;21086;44.780;17.194;2023-04-03T11:18:06;6.20;;;4.07;;
34876;SDS011;21086;44.780;17.194;2023-04-03T11:20:40;7.25;;;5.43;;
34876;SDS011;21086;44.780;17.194;2023-04-03T11:23:26;4.32;;;3.60;;
34876;SDS011;21086;44.780;17.194;2023-04-03T11:26:17;5.38;;;2.88;;
34876;SDS011;21086;44.780;17.194;2023-04-03T11:28:52;4.78;;;2.80;;
34876;SDS011;21086;44.780;17.194;2023-04-03T11:31:33;3.67;;;3.00;;
34876;SDS011;21086;44.780;17.194;2023-04-03T11:37:06;3.58;;;2.72;;
34876;SDS011;21086;44.780;17.194;2023-04-03T11:39:57;6.22;;;3.35;;
34876;SDS011;21086;44.780;17.194;2023-04-03T11:42:37;6.05;;;4.65;;
34876;SDS011;21086;44.780;17.194;2023-04-03T11:47:52;10.35;;;6.80;;
34876;SDS011;21086;44.780;17.194;2023-04-03T11:55:46;6.20;;;4.60;;
34876;SDS011;21086;44.780;17.194;2023-04-03T12:08:44;3.90;;;3.25;;
34876;SDS011;21086;44.780;17.194;2023-04-03T12:21:21;5.88;;;4.45;;
34876;SDS011;21086;44.780;17.194;2023-04-03T12:24:15;5.05;;;4.00;;
34876;SDS011;21086;44.780;17.194;2023-04-03T12:35:05;10.30;;;6.43;;
34876;SDS011;21086;44.780;17.194;2023-04-03T12:40:59;9.85;;;7.75;;
34876;SDS011;21086;44.780;17.194;2023-04-03T12:46:38;8.50;;;6.75;;
34876;SDS011;21086;44.780;17.194;2023-04-03T12:51:52;19.30;;;11.48;;
34876;SDS011;21086;44.780;17.194;2023-04-03T12:54:27;19.60;;;12.98;;
34876;SDS011;21086;44.780;17.194;2023-04-03T12:57:16;13.13;;;8.90;;
34876;SDS011;21086;44.780;17.194;2023-04-03T12:59:46;39.13;;;20.73;;
34876;SDS011;21086;44.780;17.194;2023-04-03T13:05:13;14.00;;;9.07;;
34876;SDS011;21086;44.780;17.194;2023-04-03T13:07:49;8.40;;;5.78;;
34876;SDS011;21086;44.780;17.194;2023-04-03T13:10:20;13.85;;;9.10;;
34876;SDS011;21086;44.780;17.194;2023-04-03T13:12:57;6.30;;;4.63;;
34876;SDS011;21086;44.780;17.194;2023-04-03T13:15:46;7.63;;;5.50;;
34876;SDS011;21086;44.780;17.194;2023-04-03T13:18:36;24.70;;;11.85;;
34876;SDS011;21086;44.780;17.194;2023-04-03T13:21:06;21.23;;;11.00;;
34876;SDS011;21086;44.780;17.194;2023-04-03T13:23:43;13.00;;;8.65;;
34876;SDS011;21086;44.780;17.194;2023-04-03T13:26:17;13.77;;;9.35;;
34876;SDS011;21086;44.780;17.194;2023-04-03T13:28:46;12.27;;;8.60;;
34876;SDS011;21086;44.780;17.194;2023-04-03T13:33:43;9.70;;;6.63;;
34876;SDS011;21086;44.780;17.194;2023-04-03T13:36:23;7.63;;;5.88;;
34876;SDS011;21086;44.780;17.194;2023-04-03T13:38:58;6.43;;;5.03;;
34876;SDS011;21086;44.780;17.194;2023-04-03T13:41:37;6.35;;;4.80;;
34876;SDS011;21086;44.780;17.194;2023-04-03T13:46:49;7.93;;;5.95;;
34876;SDS011;21086;44.780;17.194;2023-04-03T13:49:21;6.03;;;5.07;;
34876;SDS011;21086;44.780;17.194;2023-04-03T13:52:21;6.10;;;4.72;;
34876;SDS011;21086;44.780;17.194;2023-04-03T13:55:02;8.05;;;5.95;;
34876;SDS011;21086;44.780;17.194;2023-04-03T13:57:52;13.32;;;9.55;;
34876;SDS011;21086;44.780;17.194;2023-04-03T14:00:51;8.98;;;6.55;;
34876;SDS011;21086;44.780;17.194;2023-04-03T14:05:48;8.02;;;5.75;;
34876;SDS011;21086;44.780;17.194;2023-04-03T14:08:17;8.10;;;5.93;;
34876;SDS011;21086;44.780;17.194;2023-04-03T14:10:52;6.65;;;5.30;;
34876;SDS011;21086;44.780;17.194;2023-04-03T14:13:20;6.78;;;5.10;;
34876;SDS011;21086;44.780;17.194;2023-04-03T14:15:48;7.80;;;5.88;;
34876;SDS011;21086;44.780;17.194;2023-04-03T14:18:18;10.57;;;7.68;;
34876;SDS011;21086;44.780;17.194;2023-04-03T14:20:47;10.38;;;7.88;;
34876;SDS011;21086;44.780;17.194;2023-04-03T14:23:15;15.23;;;11.77;;
34876;SDS011;21086;44.780;17.194;2023-04-03T14:25:42;14.90;;;11.15;;
34876;SDS011;21086;44.780;17.194;2023-04-03T14:28:15;15.38;;;11.85;;
34876;SDS011;21086;44.780;17.194;2023-04-03T14:30:45;14.02;;;10.80;;
34876;SDS011;21086;44.780;17.194;2023-04-03T14:33:14;8.23;;;5.28;;
34876;SDS011;21086;44.780;17.194;2023-04-03T14:35:42;5.05;;;4.03;;
34876;SDS011;21086;44.780;17.194;2023-04-03T14:40:52;4.28;;;3.22;;
34876;SDS011;21086;44.780;17.194;2023-04-03T14:43:24;5.60;;;3.63;;
34876;SDS011;21086;44.780;17.194;2023-04-03T14:45:51;3.72;;;3.33;;
34876;SDS011;21086;44.780;17.194;2023-04-03T14:48:20;7.05;;;3.63;;
34876;SDS011;21086;44.780;17.194;2023-04-03T14:50:49;6.00;;;4.47;;
34876;SDS011;21086;44.780;17.194;2023-04-03T14:53:31;4.90;;;3.70;;
34876;SDS011;21086;44.780;17.194;2023-04-03T14:56:11;6.78;;;4.35;;
34876;SDS011;21086;44.780;17.194;2023-04-03T14:58:38;5.57;;;4.53;;
34876;SDS011;21086;44.780;17.194;2023-04-03T15:01:06;6.45;;;5.28;;
34876;SDS011;21086;44.780;17.194;2023-04-03T15:03:32;4.82;;;3.92;;
34876;SDS011;21086;44.780;17.194;2023-04-03T15:05:59;8.60;;;4.53;;
34876;SDS011;21086;44.780;17.194;2023-04-03T15:08:27;5.60;;;3.75;;
34876;SDS011;21086;44.780;17.194;2023-04-03T15:10:57;9.02;;;4.15;;
34876;SDS011;21086;44.780;17.194;2023-04-03T15:13:24;5.93;;;4.72;;
34876;SDS011;21086;44.780;17.194;2023-04-03T15:15:51;5.65;;;3.83;;
34876;SDS011;21086;44.780;17.194;2023-04-03T15:18:23;6.00;;;3.70;;
34876;SDS011;21086;44.780;17.194;2023-04-03T15:20:55;5.03;;;3.67;;
34876;SDS011;21086;44.780;17.194;2023-04-03T15:23:22;4.65;;;3.75;;
34876;SDS011;21086;44.780;17.194;2023-04-03T15:25:52;4.22;;;3.75;;
34876;SDS011;21086;44.780;17.194;2023-04-03T15:28:27;4.35;;;3.55;;
34876;SDS011;21086;44.780;17.194;2023-04-03T15:31:02;5.45;;;3.70;;
34876;SDS011;21086;44.780;17.194;2023-04-03T15:33:31;3.75;;;3.13;;
34876;SDS011;21086;44.780;17.194;2023-04-03T15:35:59;4.03;;;3.40;;
34876;SDS011;21086;44.780;17.194;2023-04-03T15:38:33;8.35;;;3.78;;
34876;SDS011;21086;44.780;17.194;2023-04-03T15:41:00;4.43;;;3.40;;
34876;SDS011;21086;44.780;17.194;2023-04-03T15:43:27;4.22;;;2.92;;
34876;SDS011;21086;44.780;17.194;2023-04-03T15:45:55;4.68;;;3.30;;
34876;SDS011;21086;44.780;17.194;2023-04-03T15:48:24;4.95;;;2.83;;
34876;SDS011;21086;44.780;17.194;2023-04-03T15:50:52;3.83;;;2.65;;
34876;SDS011;21086;44.780;17.194;2023-04-03T15:53:21;4.05;;;3.10;;
34876;SDS011;21086;44.780;17.194;2023-04-03T15:55:47;4.22;;;2.85;;
34876;SDS011;21086;44.780;17.194;2023-04-03T15:58:15;6.00;;;3.15;;
34876;SDS011;21086;44.780;17.194;2023-04-03T16:00:42;5.65;;;3.38;;
34876;SDS011;21086;44.780;17.194;2023-04-03T16:03:10;15.73;;;10.45;;
34876;SDS011;21086;44.780;17.194;2023-04-03T16:05:38;6.53;;;4.13;;
34876;SDS011;21086;44.780;17.194;2023-04-03T16:08:06;8.25;;;5.05;;
34876;SDS011;21086;44.780;17.194;2023-04-03T16:10:34;5.20;;;3.92;;
34876;SDS011;21086;44.780;17.194;2023-04-03T16:13:03;11.35;;;3.90;;
34876;SDS011;21086;44.780;17.194;2023-04-03T16:15:31;4.60;;;3.90;;
34876;SDS011;21086;44.780;17.194;2023-04-03T16:17:59;7.63;;;5.60;;
34876;SDS011;21086;44.780;17.194;2023-04-03T16:20:26;7.93;;;5.53;;
34876;SDS011;21086;44.780;17.194;2023-04-03T16:22:55;7.40;;;5.53;;
34876;SDS011;21086;44.780;17.194;2023-04-03T16:25:23;7.32;;;5.07;;
34876;SDS011;21086;44.780;17.194;2023-04-03T16:27:50;11.20;;;5.95;;
34876;SDS011;21086;44.780;17.194;2023-04-03T16:30:18;6.90;;;5.35;;
34876;SDS011;21086;44.780;17.194;2023-04-03T16:32:45;9.27;;;6.55;;
34876;SDS011;21086;44.780;17.194;2023-04-03T16:35:12;6.53;;;5.10;;
34876;SDS011;21086;44.780;17.194;2023-04-03T16:37:39;8.05;;;5.22;;
34876;SDS011;21086;44.780;17.194;2023-04-03T16:40:06;13.48;;;10.98;;
34876;SDS011;21086;44.780;17.194;2023-04-03T16:42:34;6.05;;;5.07;;
34876;SDS011;21086;44.780;17.194;2023-04-03T16:45:03;9.07;;;4.85;;
34876;SDS011;21086;44.780;17.194;2023-04-03T16:47:32;4.93;;;3.70;;
34876;SDS011;21086;44.780;17.194;2023-04-03T16:49:59;5.93;;;3.80;;
34876;SDS011;21086;44.780;17.194;2023-04-03T16:52:26;4.93;;;3.50;;
34876;SDS011;21086;44.780;17.194;2023-04-03T16:54:53;7.18;;;4.38;;